Terminal Aerodrome Forecast
Issued by NWS

Home | Current Version | Previous Version | Text Only | Print | Product List | Glossary On
Versions: 1 2 3 4 5 6 7 8 9 10 11 12 13 14 15
000
FTUS45 KGJT 301131
TAFCNY
TAF
KCNY 301131Z 3012/0112 00000KT P6SM FEW250
     FM301800 33006KT P6SM FEW150 BKN250
     FM302200 31010KT P6SM SCT150 BKN200
     FM010500 30006KT P6SM FEW100 BKN150=

USA.gov is the U.S. government's official web portal to all federal, state and local government web resources and services.